createdAt,value
2017-07-22T00:00:17.646Z,100.0
2017-07-22T00:01:19.076Z,98.4
2017-07-22T00:02:20.504Z,100.0
2017-07-22T00:03:21.924Z,99.4
2017-07-22T00:04:23.368Z,100.0
2017-07-22T00:05:24.791Z,100.0
2017-07-22T00:06:26.218Z,100.0
2017-07-22T00:07:27.640Z,99.8
2017-07-22T00:08:29.066Z,99.9
2017-07-22T00:09:30.503Z,99.6
2017-07-22T00:10:31.946Z,100.0
2017-07-22T00:11:33.369Z,100.0
2017-07-22T00:12:34.793Z,100.0
2017-07-22T00:13:36.226Z,100.0
2017-07-22T00:14:37.667Z,99.4
2017-07-22T00:15:39.096Z,100.0
2017-07-22T00:16:40.525Z,100.0
2017-07-22T00:17:41.954Z,100.0
2017-07-22T00:18:43.369Z,100.0
2017-07-22T00:19:44.811Z,99.5
2017-07-22T00:20:46.259Z,99.6
2017-07-22T00:21:47.682Z,99.4
2017-07-22T00:22:49.103Z,100.0
2017-07-22T00:23:50.531Z,99.7
2017-07-22T00:24:51.959Z,100.0
2017-07-22T00:25:53.407Z,100.0
2017-07-22T00:26:54.834Z,99.4
2017-07-22T00:27:56.259Z,99.6
2017-07-22T00:28:57.686Z,99.5
2017-07-22T00:29:59.114Z,99.6
2017-07-22T00:31:00.554Z,100.0
2017-07-22T00:32:01.980Z,100.0
2017-07-22T00:33:03.422Z,100.0
2017-07-22T00:34:04.847Z,100.0
2017-07-22T00:35:06.268Z,100.0
2017-07-22T00:36:07.697Z,100.0
2017-07-22T00:37:09.123Z,100.0
2017-07-22T00:38:10.566Z,100.0
2017-07-22T00:39:11.989Z,100.0
2017-07-22T00:40:13.415Z,100.0
2017-07-22T00:41:14.858Z,100.0
2017-07-22T00:42:16.283Z,100.0
2017-07-22T00:43:17.708Z,100.0
2017-07-22T00:44:19.155Z,100.0
2017-07-22T00:45:20.578Z,100.0
2017-07-22T00:46:22.004Z,99.7
2017-07-22T00:47:23.448Z,100.0
2017-07-22T00:48:24.873Z,100.0
2017-07-22T00:49:26.298Z,100.0
2017-07-22T00:50:27.729Z,100.0
2017-07-22T00:51:29.155Z,100.0
2017-07-22T00:52:30.597Z,100.0
2017-07-22T00:53:32.023Z,100.0
2017-07-22T00:54:33.445Z,99.8
2017-07-22T00:55:34.883Z,99.6
2017-07-22T00:56:36.313Z,100.0
2017-07-22T00:57:37.737Z,100.0
2017-07-22T00:58:39.164Z,100.0
2017-07-22T00:59:40.589Z,100.0
2017-07-22T01:00:42.031Z,100.0
2017-07-22T01:01:43.477Z,100.0
2017-07-22T01:02:44.904Z,100.0
2017-07-22T01:03:46.326Z,100.0
2017-07-22T01:04:47.753Z,100.0
2017-07-22T01:05:49.183Z,100.0
2017-07-22T01:06:50.628Z,100.0
2017-07-22T01:07:52.051Z,100.0
2017-07-22T01:08:53.474Z,100.0
2017-07-22T01:09:54.895Z,100.0
2017-07-22T01:10:56.324Z,100.0
2017-07-22T01:11:57.766Z,100.0
2017-07-22T01:12:59.194Z,100.0
2017-07-22T01:14:00.638Z,100.0
2017-07-22T01:15:02.061Z,100.0
2017-07-22T01:16:03.485Z,100.0
2017-07-22T01:17:04.903Z,100.0
2017-07-22T01:18:06.346Z,100.0
2017-07-22T01:19:07.793Z,100.0
2017-07-22T01:20:09.223Z,100.0
2017-07-22T01:21:10.651Z,100.0
2017-07-22T01:22:12.078Z,100.0
2017-07-22T01:23:13.504Z,100.0
2017-07-22T01:24:14.942Z,100.0
2017-07-22T01:25:16.385Z,100.0
2017-07-22T01:26:17.809Z,100.0
2017-07-22T01:27:19.238Z,99.8
2017-07-22T01:28:20.663Z,100.0
2017-07-22T01:29:22.101Z,100.0
2017-07-22T01:30:23.524Z,99.8
2017-07-22T01:31:24.963Z,98.8
2017-07-22T01:32:26.392Z,98.9
2017-07-22T01:33:27.820Z,98.0
2017-07-22T01:34:29.243Z,98.1
2017-07-22T01:35:30.680Z,99.0
2017-07-22T01:36:32.114Z,98.5
2017-07-22T01:37:33.544Z,99.8
2017-07-22T01:38:34.961Z,100.0
2017-07-22T01:39:36.395Z,100.0
2017-07-22T01:40:37.826Z,98.4
2017-07-22T01:41:39.276Z,99.7
2017-07-22T01:42:40.694Z,99.5
2017-07-22T01:43:42.124Z,100.0
2017-07-22T01:44:43.549Z,100.0
2017-07-22T01:45:44.973Z,100.0
2017-07-22T01:46:46.415Z,100.0
2017-07-22T01:47:47.841Z,100.0
2017-07-22T01:48:49.268Z,100.0
2017-07-22T01:49:50.697Z,100.0
2017-07-22T01:50:52.122Z,100.0
2017-07-22T01:51:53.563Z,100.0
2017-07-22T01:52:54.987Z,100.0
2017-07-22T01:53:56.418Z,100.0
2017-07-22T01:54:57.842Z,100.0
2017-07-22T01:55:59.270Z,100.0
2017-07-22T01:57:00.714Z,100.0
2017-07-22T01:58:02.134Z,100.0
2017-07-22T01:59:03.578Z,100.0
2017-07-22T02:00:05.004Z,100.0
2017-07-22T02:01:06.428Z,100.0
2017-07-22T02:02:07.856Z,100.0
2017-07-22T02:03:09.280Z,100.0
2017-07-22T02:04:10.725Z,100.0
2017-07-22T02:05:12.152Z,100.0
2017-07-22T02:06:13.578Z,100.0
2017-07-22T02:07:15.001Z,100.0
2017-07-22T02:08:16.432Z,100.0
2017-07-22T02:09:17.878Z,100.0
2017-07-22T02:10:19.298Z,100.0
2017-07-22T02:11:20.730Z,100.0
2017-07-22T02:12:22.161Z,100.0
2017-07-22T02:13:23.580Z,100.0
2017-07-22T02:14:25.023Z,100.0
2017-07-22T02:15:26.450Z,100.0
2017-07-22T02:16:27.877Z,100.0
2017-07-22T02:17:29.301Z,100.0
2017-07-22T02:18:30.732Z,100.0
2017-07-22T02:19:32.175Z,100.0
2017-07-22T02:20:33.595Z,100.0
2017-07-22T02:21:35.025Z,100.0
2017-07-22T02:22:36.450Z,100.0
2017-07-22T02:23:37.873Z,100.0
2017-07-22T02:24:39.320Z,100.0
2017-07-22T02:25:40.762Z,100.0
2017-07-22T02:26:42.194Z,100.0
2017-07-22T02:27:43.614Z,100.0
2017-07-22T02:28:45.046Z,100.0
2017-07-22T02:29:46.478Z,100.0
2017-07-22T02:30:47.916Z,100.0
2017-07-22T02:31:49.346Z,100.0
2017-07-22T02:32:50.778Z,100.0
2017-07-22T02:33:52.196Z,100.0
2017-07-22T02:34:53.617Z,100.0
2017-07-22T02:35:55.071Z,100.0
2017-07-22T02:36:56.494Z,100.0
2017-07-22T02:37:57.926Z,100.0
2017-07-22T02:38:59.354Z,100.0
2017-07-22T02:40:00.777Z,100.0
2017-07-22T02:41:02.221Z,100.0
2017-07-22T02:42:03.662Z,100.0
2017-07-22T02:43:05.089Z,100.0
2017-07-22T02:44:06.515Z,100.0
2017-07-22T02:45:07.943Z,100.0
2017-07-22T02:46:09.370Z,100.0
2017-07-22T02:47:10.820Z,100.0
2017-07-22T02:48:12.242Z,100.0
2017-07-22T02:49:13.674Z,100.0
2017-07-22T02:50:15.095Z,100.0
2017-07-22T02:51:16.518Z,100.0
2017-07-22T02:52:17.964Z,100.0
2017-07-22T02:53:19.436Z,100.0
2017-07-22T02:54:20.837Z,100.0
2017-07-22T02:55:22.267Z,100.0
2017-07-22T02:56:23.696Z,100.0
2017-07-22T02:57:25.122Z,100.0
2017-07-22T02:58:26.560Z,100.0
2017-07-22T02:59:27.991Z,100.0
2017-07-22T03:00:29.416Z,100.0
2017-07-22T03:01:30.840Z,100.0
2017-07-22T03:02:32.268Z,100.0
2017-07-22T03:03:33.710Z,100.0
2017-07-22T03:04:35.134Z,100.0
2017-07-22T03:05:36.565Z,100.0
2017-07-22T03:06:37.988Z,100.0
2017-07-22T03:07:39.439Z,100.0
2017-07-22T03:08:40.863Z,100.0
2017-07-22T03:09:42.288Z,100.0
2017-07-22T03:10:43.710Z,100.0
2017-07-22T03:11:45.151Z,100.0
2017-07-22T03:12:46.578Z,100.0
2017-07-22T03:13:47.999Z,100.0
2017-07-22T03:14:49.429Z,100.0
2017-07-22T03:15:50.858Z,100.0
2017-07-22T03:16:52.282Z,100.0
2017-07-22T03:17:53.718Z,100.0
2017-07-22T03:18:55.140Z,100.0
2017-07-22T03:19:56.571Z,100.0
2017-07-22T03:20:58.013Z,100.0
2017-07-22T03:21:59.444Z,100.0
2017-07-22T03:23:00.872Z,100.0
2017-07-22T03:24:02.295Z,100.0
2017-07-22T03:25:03.741Z,100.0
2017-07-22T03:26:05.177Z,100.0
2017-07-22T03:27:06.593Z,100.0
2017-07-22T03:28:08.022Z,100.0
2017-07-22T03:29:09.457Z,100.0
2017-07-22T03:30:10.899Z,100.0
2017-07-22T03:31:12.321Z,100.0
2017-07-22T03:32:13.762Z,100.0
2017-07-22T03:33:15.195Z,100.0
2017-07-22T03:34:16.623Z,100.0
2017-07-22T03:35:18.048Z,100.0
2017-07-22T03:36:19.481Z,100.0
2017-07-22T03:37:20.923Z,100.0
2017-07-22T03:38:22.350Z,100.0
2017-07-22T03:39:23.780Z,100.0
2017-07-22T03:40:25.220Z,100.0
2017-07-22T03:41:26.643Z,100.0
2017-07-22T03:42:28.089Z,100.0
2017-07-22T03:43:29.523Z,100.0
2017-07-22T03:44:30.952Z,100.0
2017-07-22T03:45:32.379Z,100.0
2017-07-22T03:46:33.801Z,100.0
2017-07-22T03:47:35.246Z,100.0
2017-07-22T03:48:36.674Z,100.0
2017-07-22T03:49:38.098Z,100.0
2017-07-22T03:50:39.527Z,100.0
2017-07-22T03:51:40.950Z,100.0
2017-07-22T03:52:42.395Z,100.0
2017-07-22T03:53:43.823Z,100.0
2017-07-22T03:54:45.267Z,100.0
2017-07-22T03:55:46.689Z,100.0
2017-07-22T03:56:48.119Z,100.0
2017-07-22T03:57:49.543Z,100.0
2017-07-22T03:58:50.976Z,100.0
2017-07-22T03:59:52.415Z,100.0
2017-07-22T04:00:53.839Z,100.0
2017-07-22T04:01:55.270Z,100.0
2017-07-22T04:02:56.699Z,100.0
2017-07-22T04:03:58.128Z,100.0
2017-07-22T04:04:59.575Z,100.0
2017-07-22T04:06:01.008Z,100.0
2017-07-22T04:07:02.442Z,100.0
2017-07-22T04:08:03.871Z,100.0
2017-07-22T04:09:05.302Z,100.0
2017-07-22T04:10:06.746Z,100.0
2017-07-22T04:11:08.175Z,100.0
2017-07-22T04:12:09.622Z,100.0
2017-07-22T04:13:11.058Z,100.0
2017-07-22T04:14:12.483Z,100.0
2017-07-22T04:15:13.913Z,100.0
2017-07-22T04:16:15.333Z,100.0
2017-07-22T04:17:16.786Z,100.0
2017-07-22T04:18:18.213Z,100.0
2017-07-22T04:19:19.649Z,100.0
2017-07-22T04:20:21.079Z,100.0
2017-07-22T04:21:22.509Z,100.0
2017-07-22T04:22:23.955Z,100.0
2017-07-22T04:23:25.388Z,100.0
2017-07-22T04:24:26.815Z,100.0
2017-07-22T04:25:28.244Z,100.0
2017-07-22T04:26:29.676Z,100.0
2017-07-22T04:27:31.122Z,100.0
2017-07-22T04:28:32.552Z,100.0
2017-07-22T04:29:33.979Z,100.0
2017-07-22T04:30:35.413Z,100.0
2017-07-22T04:31:36.846Z,100.0
2017-07-22T04:32:38.297Z,100.0
2017-07-22T04:33:39.731Z,100.0
2017-07-22T04:34:41.161Z,100.0
2017-07-22T04:35:42.597Z,100.0
2017-07-22T04:36:44.018Z,100.0
2017-07-22T04:37:45.467Z,100.0
2017-07-22T04:38:46.903Z,100.0
2017-07-22T04:39:48.352Z,100.0
2017-07-22T04:40:49.778Z,100.0
2017-07-22T04:41:51.216Z,100.0
2017-07-22T04:42:52.643Z,100.0
2017-07-22T04:43:54.088Z,100.0
2017-07-22T04:44:55.516Z,100.0
2017-07-22T04:45:56.968Z,100.0
2017-07-22T04:46:58.394Z,100.0
2017-07-22T04:47:59.825Z,100.0
2017-07-22T04:49:01.258Z,100.0
2017-07-22T04:50:02.702Z,100.0
2017-07-22T04:51:04.149Z,100.0
2017-07-22T04:52:05.575Z,100.0
2017-07-22T04:53:07.006Z,100.0
2017-07-22T04:54:08.435Z,100.0
2017-07-22T04:55:09.864Z,100.0
2017-07-22T04:56:11.317Z,100.0
2017-07-22T04:57:12.743Z,100.0
2017-07-22T04:58:14.172Z,100.0
2017-07-22T04:59:15.611Z,100.0
2017-07-22T05:00:17.043Z,100.0
2017-07-22T05:01:18.496Z,100.0
2017-07-22T05:02:19.930Z,100.0
2017-07-22T05:03:21.366Z,100.0
2017-07-22T05:04:22.809Z,100.0
2017-07-22T05:05:24.257Z,100.0
2017-07-22T05:06:25.710Z,100.0
2017-07-22T05:07:27.146Z,100.0
2017-07-22T05:08:28.595Z,100.0
2017-07-22T05:09:30.024Z,100.0
2017-07-22T05:10:31.457Z,100.0
2017-07-22T05:11:32.891Z,100.0
2017-07-22T05:12:34.325Z,100.0
2017-07-22T05:13:35.776Z,100.0
2017-07-22T05:14:37.213Z,100.0
2017-07-22T05:15:38.674Z,100.0
2017-07-22T05:16:40.117Z,100.0
2017-07-22T05:17:41.545Z,100.0
2017-07-22T05:18:42.995Z,100.0
2017-07-22T05:19:44.426Z,99.8
2017-07-22T05:20:45.856Z,100.0
2017-07-22T05:21:47.299Z,100.0
2017-07-22T05:22:48.737Z,99.8
2017-07-22T05:23:50.194Z,99.5
2017-07-22T05:24:51.624Z,100.0
2017-07-22T05:25:53.075Z,100.0
2017-07-22T05:26:54.507Z,100.0
2017-07-22T05:27:55.933Z,100.0
2017-07-22T05:28:57.371Z,100.0
2017-07-22T05:29:58.798Z,100.0
2017-07-22T05:31:00.243Z,100.0
2017-07-22T05:32:01.679Z,100.0
2017-07-22T05:33:03.108Z,100.0
2017-07-22T05:34:04.532Z,100.0
2017-07-22T05:35:05.965Z,100.0
2017-07-22T05:36:07.408Z,100.0
2017-07-22T05:37:08.845Z,100.0
2017-07-22T05:38:10.274Z,100.0
2017-07-22T05:39:11.703Z,100.0
2017-07-22T05:40:13.149Z,100.0
2017-07-22T05:41:14.577Z,100.0
2017-07-22T05:42:16.012Z,100.0
2017-07-22T05:43:17.439Z,100.0
2017-07-22T05:44:18.870Z,100.0
2017-07-22T05:45:20.320Z,100.0
2017-07-22T05:46:21.757Z,100.0
2017-07-22T05:47:23.196Z,100.0
2017-07-22T05:48:24.634Z,100.0
2017-07-22T05:49:26.065Z,100.0
2017-07-22T05:50:27.519Z,100.0
2017-07-22T05:51:28.955Z,100.0
2017-07-22T05:52:30.391Z,100.0
2017-07-22T05:53:31.827Z,100.0
2017-07-22T05:54:33.262Z,100.0
2017-07-22T05:55:34.719Z,100.0
2017-07-22T05:56:36.154Z,100.0
2017-07-22T05:57:37.585Z,100.0
2017-07-22T05:58:39.014Z,100.0
2017-07-22T05:59:40.456Z,100.0
2017-07-22T06:00:41.921Z,100.0
2017-07-22T06:01:43.368Z,100.0
2017-07-22T06:02:44.799Z,100.0
2017-07-22T06:03:46.240Z,100.0
2017-07-22T06:04:47.668Z,100.0
2017-07-22T06:05:49.104Z,100.0
2017-07-22T06:06:50.567Z,100.0
2017-07-22T06:07:52.004Z,100.0
2017-07-22T06:08:53.438Z,100.0
2017-07-22T06:09:54.865Z,100.0
2017-07-22T06:10:56.298Z,100.0
2017-07-22T06:11:57.745Z,100.0
2017-07-22T06:12:59.181Z,100.0
2017-07-22T06:14:00.618Z,100.0
2017-07-22T06:15:02.051Z,100.0
2017-07-22T06:16:03.476Z,100.0
2017-07-22T06:17:04.926Z,100.0
2017-07-22T06:18:06.361Z,99.4
2017-07-22T06:19:07.792Z,100.0
2017-07-22T06:20:09.229Z,100.0
2017-07-22T06:21:11.525Z,100.0
2017-07-22T06:22:12.969Z,99.7
2017-07-22T06:23:17.819Z,100.0
2017-07-22T06:24:20.892Z,100.0
2017-07-22T06:25:22.344Z,100.0
2017-07-22T06:26:24.533Z,100.0
2017-07-22T06:27:25.990Z,100.0
2017-07-22T06:28:27.425Z,99.7
2017-07-22T06:29:33.845Z,99.5
2017-07-22T06:30:35.278Z,99.6
2017-07-22T06:31:36.706Z,99.5
2017-07-22T06:32:38.153Z,99.9
2017-07-22T06:33:39.585Z,100.0
2017-07-22T06:34:41.016Z,98.3
2017-07-22T06:35:42.454Z,99.3
2017-07-22T06:36:43.888Z,98.2
2017-07-22T06:37:45.328Z,98.5
2017-07-22T06:38:46.760Z,97.5
2017-07-22T06:39:48.190Z,96.5
2017-07-22T06:40:49.618Z,97.8
2017-07-22T06:41:51.060Z,97.6
2017-07-22T06:42:52.506Z,98.1
2017-07-22T06:43:53.947Z,98.2
2017-07-22T06:44:55.374Z,96.9
2017-07-22T06:45:56.806Z,96.8
2017-07-22T06:46:58.238Z,96.2
2017-07-22T06:47:59.686Z,96.8
2017-07-22T06:49:01.119Z,95.2
2017-07-22T06:50:02.558Z,96.9
2017-07-22T06:51:03.997Z,96.7
2017-07-22T06:52:05.431Z,94.1
2017-07-22T06:53:06.878Z,93.3
2017-07-22T06:54:08.310Z,94.1
2017-07-22T06:55:09.742Z,92.7
2017-07-22T06:56:11.171Z,92.1
2017-07-22T06:57:12.602Z,90.3
2017-07-22T06:58:14.050Z,92.8
2017-07-22T06:59:15.485Z,91.3
2017-07-22T07:00:16.915Z,92.1
2017-07-22T07:01:18.341Z,91.4
2017-07-22T07:02:19.792Z,92.1
2017-07-22T07:03:21.246Z,93.0
2017-07-22T07:04:22.678Z,91.4
2017-07-22T07:05:24.120Z,91.9
2017-07-22T07:06:25.550Z,88.6
2017-07-22T07:07:26.977Z,88.7
2017-07-22T07:08:28.429Z,85.6
2017-07-22T07:09:29.857Z,86.4
2017-07-22T07:10:31.308Z,87.5
2017-07-22T07:11:32.741Z,87.7
2017-07-22T07:12:34.182Z,86.4
2017-07-22T07:13:35.613Z,85.9
2017-07-22T07:14:37.059Z,84.8
2017-07-22T07:15:38.501Z,86.8
2017-07-22T07:16:39.942Z,89.0
2017-07-22T07:17:41.377Z,89.3
2017-07-22T07:18:42.889Z,88.9
2017-07-22T07:19:44.335Z,89.8
2017-07-22T07:20:45.768Z,90.0
2017-07-22T07:21:47.220Z,92.1
2017-07-22T07:22:48.651Z,92.5
2017-07-22T07:23:50.085Z,93.0
2017-07-22T07:24:51.511Z,92.8
2017-07-22T07:25:52.963Z,93.1
2017-07-22T07:26:54.400Z,92.7
2017-07-22T07:27:55.838Z,91.8
2017-07-22T07:28:57.268Z,92.8
2017-07-22T07:29:58.721Z,93.2
2017-07-22T07:31:00.151Z,91.0
2017-07-22T07:32:01.593Z,89.9
2017-07-22T07:33:03.038Z,87.9
2017-07-22T07:34:04.475Z,88.8
2017-07-22T07:35:05.925Z,92.2
2017-07-22T07:36:07.355Z,91.0
2017-07-22T07:37:08.793Z,90.4
2017-07-22T07:38:10.225Z,90.8
2017-07-22T07:39:11.660Z,87.2
2017-07-22T07:40:13.112Z,89.4
2017-07-22T07:41:14.562Z,87.2
2017-07-22T07:42:15.990Z,86.7
2017-07-22T07:43:17.419Z,86.5
2017-07-22T07:44:18.847Z,85.8
2017-07-22T07:45:20.280Z,88.5
2017-07-22T07:46:21.736Z,86.3
2017-07-22T07:47:23.193Z,87.7
2017-07-22T07:48:24.628Z,88.4
2017-07-22T07:49:26.054Z,87.6
2017-07-22T07:50:27.490Z,87.2
2017-07-22T07:51:28.927Z,86.8
2017-07-22T07:52:30.383Z,87.2
2017-07-22T07:53:31.815Z,87.8
2017-07-22T07:54:33.255Z,85.6
2017-07-22T07:55:34.692Z,79.3
2017-07-22T07:56:36.132Z,81.7
2017-07-22T07:57:37.580Z,79.3
2017-07-22T07:58:39.015Z,78.6
2017-07-22T07:59:40.457Z,79.1
2017-07-22T08:00:41.887Z,78.8
2017-07-22T08:01:43.334Z,79.8
2017-07-22T08:02:44.787Z,79.5
2017-07-22T08:03:46.235Z,76.7
2017-07-22T08:04:47.666Z,77.4
2017-07-22T08:05:49.099Z,78.4
2017-07-22T08:06:50.537Z,78.1
2017-07-22T08:07:51.980Z,76.7
2017-07-22T08:08:53.442Z,75.7
2017-07-22T08:09:54.877Z,76.1
2017-07-22T08:10:56.313Z,75.1
2017-07-22T08:11:57.759Z,76.1
2017-07-22T08:12:59.195Z,75.9
2017-07-22T08:14:00.674Z,77.9
2017-07-22T08:15:02.117Z,75.9
2017-07-22T08:16:03.552Z,77.5
2017-07-22T08:17:04.985Z,76.7
2017-07-22T08:18:06.422Z,74.6
2017-07-22T08:19:07.864Z,74.9
2017-07-22T08:20:09.296Z,73.9
2017-07-22T08:21:10.763Z,74.4
2017-07-22T08:22:12.196Z,75.1
2017-07-22T08:23:13.632Z,74.8
2017-07-22T08:24:15.073Z,73.5
2017-07-22T08:25:16.525Z,74.0
2017-07-22T08:26:17.963Z,72.7
2017-07-22T08:27:19.394Z,74.0
2017-07-22T08:28:20.833Z,73.7
2017-07-22T08:29:22.261Z,73.4
2017-07-22T08:30:23.717Z,77.1
2017-07-22T08:31:25.154Z,73.3
2017-07-22T08:32:26.602Z,71.9
2017-07-22T08:33:28.668Z,70.8
2017-07-22T08:34:30.103Z,71.6
2017-07-22T08:35:31.556Z,71.2
2017-07-22T08:36:32.992Z,70.0
2017-07-22T08:37:34.428Z,68.8
2017-07-22T08:38:35.863Z,71.2
2017-07-22T08:39:37.321Z,71.8
2017-07-22T08:40:38.758Z,69.3
2017-07-22T08:41:40.193Z,70.0
2017-07-22T08:42:41.630Z,71.0
2017-07-22T08:43:43.065Z,70.5
2017-07-22T08:44:44.499Z,71.3
2017-07-22T08:45:45.969Z,70.3
2017-07-22T08:46:47.402Z,71.1
2017-07-22T08:47:48.843Z,71.1
2017-07-22T08:48:50.281Z,69.4
2017-07-22T08:49:51.725Z,68.7
2017-07-22T08:50:53.168Z,68.7
2017-07-22T08:51:54.621Z,68.0
2017-07-22T08:52:56.062Z,68.8
2017-07-22T08:53:57.491Z,69.8
2017-07-22T08:54:58.928Z,67.6
2017-07-22T08:56:00.368Z,68.1
2017-07-22T08:57:01.824Z,66.4
2017-07-22T08:58:03.254Z,66.8
2017-07-22T08:59:04.690Z,66.6
2017-07-22T09:00:06.132Z,66.3
2017-07-22T09:01:07.566Z,68.5
2017-07-22T09:02:09.016Z,67.5
2017-07-22T09:03:10.451Z,67.9
2017-07-22T09:04:11.893Z,68.4
2017-07-22T09:05:13.335Z,69.1
2017-07-22T09:06:14.774Z,70.1
2017-07-22T09:07:16.232Z,67.5
2017-07-22T09:08:17.668Z,68.4
2017-07-22T09:09:19.105Z,65.3
2017-07-22T09:10:20.539Z,67.0
2017-07-22T09:11:21.982Z,64.8
2017-07-22T09:12:23.432Z,65.6
2017-07-22T09:13:24.872Z,65.6
2017-07-22T09:14:26.324Z,65.9
2017-07-22T09:15:27.766Z,66.5
2017-07-22T09:16:29.196Z,66.8
2017-07-22T09:17:30.651Z,64.8
2017-07-22T09:18:32.083Z,65.0
2017-07-22T09:19:33.519Z,63.0
2017-07-22T09:20:34.961Z,63.6
2017-07-22T09:21:36.402Z,65.8
2017-07-22T09:22:37.863Z,62.3
2017-07-22T09:23:39.297Z,62.0
2017-07-22T09:24:40.735Z,60.6
2017-07-22T09:25:42.185Z,60.8
2017-07-22T09:26:43.635Z,63.4
2017-07-22T09:27:45.082Z,60.0
2017-07-22T09:28:46.534Z,59.1
2017-07-22T09:29:47.968Z,58.7
2017-07-22T09:30:49.412Z,58.3
2017-07-22T09:31:50.866Z,55.9
2017-07-22T09:32:52.310Z,56.0
2017-07-22T09:33:53.765Z,57.3
2017-07-22T09:34:55.212Z,54.6
2017-07-22T09:35:56.656Z,56.9
2017-07-22T09:36:58.091Z,58.7
2017-07-22T09:37:59.550Z,53.1
2017-07-22T09:39:01.011Z,56.0
2017-07-22T09:40:02.453Z,53.7
2017-07-22T09:41:03.896Z,52.0
2017-07-22T09:42:05.365Z,55.7
2017-07-22T09:43:06.819Z,52.0
2017-07-22T09:44:08.285Z,50.8
2017-07-22T09:45:09.743Z,50.6
2017-07-22T09:46:11.185Z,50.6
2017-07-22T09:47:12.635Z,49.4
2017-07-22T09:48:14.077Z,48.3
2017-07-22T09:49:15.523Z,51.3
2017-07-22T09:50:17.230Z,48.8
2017-07-22T09:51:18.685Z,50.5
2017-07-22T09:52:20.127Z,49.0
2017-07-22T09:53:21.577Z,49.3
2017-07-22T09:54:23.018Z,48.7
2017-07-22T09:55:24.465Z,49.1
2017-07-22T09:56:25.928Z,48.1
2017-07-22T09:57:27.387Z,48.8
2017-07-22T09:58:28.823Z,50.4
2017-07-22T09:59:30.270Z,50.6
2017-07-22T10:00:31.720Z,51.1
2017-07-22T10:01:33.183Z,50.7
2017-07-22T10:02:34.629Z,51.0
2017-07-22T10:03:36.073Z,51.3
2017-07-22T10:04:37.519Z,52.4
2017-07-22T10:05:38.975Z,50.4
2017-07-22T10:06:40.436Z,50.4
2017-07-22T10:07:41.882Z,50.4
2017-07-22T10:08:43.328Z,48.2
2017-07-22T10:09:44.775Z,52.1
2017-07-22T10:10:46.224Z,48.7
2017-07-22T10:11:47.692Z,51.2
2017-07-22T10:12:49.138Z,48.4
2017-07-22T10:13:50.599Z,48.1
2017-07-22T10:14:52.023Z,48.1
2017-07-22T10:15:53.471Z,50.1
2017-07-22T10:16:54.941Z,50.1
2017-07-22T10:17:56.390Z,49.4
2017-07-22T10:18:57.833Z,48.7
2017-07-22T10:19:59.281Z,49.1
2017-07-22T10:21:00.724Z,48.7
2017-07-22T10:22:02.187Z,47.9
2017-07-22T10:23:03.632Z,47.5
2017-07-22T10:24:05.078Z,49.0
2017-07-22T10:25:06.527Z,48.2
2017-07-22T10:26:07.976Z,45.7
2017-07-22T10:27:09.437Z,47.6
2017-07-22T10:28:10.891Z,47.7
2017-07-22T10:29:12.330Z,47.5
2017-07-22T10:30:13.780Z,46.2
2017-07-22T10:31:15.252Z,48.1
2017-07-22T10:32:16.710Z,44.5
2017-07-22T10:33:18.152Z,42.7
2017-07-22T10:34:19.598Z,43.8
2017-07-22T10:35:21.061Z,46.3
2017-07-22T10:36:22.506Z,43.3
2017-07-22T10:37:23.984Z,43.4
2017-07-22T10:38:25.434Z,42.8
2017-07-22T10:39:26.880Z,40.9
2017-07-22T10:40:28.349Z,41.8
2017-07-22T10:41:29.794Z,43.4
2017-07-22T10:42:31.258Z,42.1
2017-07-22T10:43:32.705Z,42.6
2017-07-22T10:44:34.157Z,41.4
2017-07-22T10:45:35.626Z,42.8
2017-07-22T10:46:37.069Z,41.2
2017-07-22T10:47:38.522Z,41.7
2017-07-22T10:48:39.998Z,42.0
2017-07-22T10:49:41.445Z,45.0
2017-07-22T10:50:42.897Z,44.5
2017-07-22T10:51:44.351Z,43.6
2017-07-22T10:52:45.795Z,45.0
2017-07-22T10:53:47.270Z,42.7
2017-07-22T10:54:48.718Z,46.2
2017-07-22T10:55:50.162Z,40.8
2017-07-22T10:56:51.605Z,42.2
2017-07-22T10:57:53.056Z,41.2
2017-07-22T10:58:54.521Z,40.7
2017-07-22T10:59:55.963Z,37.2
2017-07-22T11:00:57.455Z,40.1
2017-07-22T11:01:58.879Z,42.7
2017-07-22T11:03:00.338Z,36.3
2017-07-22T11:04:01.777Z,37.0
2017-07-22T11:05:03.235Z,39.1
2017-07-22T11:06:04.716Z,38.5
2017-07-22T11:07:06.172Z,38.4
2017-07-22T11:08:07.619Z,37.0
2017-07-22T11:09:09.072Z,35.9
2017-07-22T11:10:10.524Z,36.8
2017-07-22T11:11:12.001Z,36.6
2017-07-22T11:12:13.444Z,37.9
2017-07-22T11:13:14.898Z,40.6
2017-07-22T11:14:16.343Z,39.7
2017-07-22T11:15:17.797Z,41.6
2017-07-22T11:16:19.259Z,39.7
2017-07-22T11:17:20.705Z,41.0
2017-07-22T11:18:22.150Z,38.9
2017-07-22T11:19:23.594Z,39.6
2017-07-22T11:20:25.042Z,37.5
2017-07-22T11:21:26.506Z,39.1
2017-07-22T11:22:27.972Z,37.6
2017-07-22T11:23:29.424Z,38.7
2017-07-22T11:24:30.872Z,41.8
2017-07-22T11:25:32.316Z,40.1
2017-07-22T11:26:33.763Z,39.3
2017-07-22T11:27:35.236Z,37.3
2017-07-22T16:52:08.013Z,0.0
